Flight Track Log - Related Links

Times and Time Zones

All times are in EDT time to prevent confusion due to time zone crossing. See the ASQ4613 flight status page for this flight to view local times or setup timezone preferences in your user account.

Time Position Orientation Groundspeed Altitude Reporting Facility
EDT Latitude Longitude Course Direction KTS MPH feet Rate Location/Type
Fri 05:14:12 PM 39.0000 -77.4500 North 201 231 2,500  Level Potomac TRACON
Fri 05:15:12 PM 39.0667 -77.4667 349° North 260 299 5,400 3,036 Climbing Potomac TRACON
Fri 05:16:58 PM 39.1881 -77.4956 350° North 272 313 10,900 2,561 Climbing Washington Center
Fri 05:17:56 PM 39.2694 -77.4897 North 277 319 12,400 1,714 Climbing Washington Center
Fri 05:18:57 PM 39.3592 -77.4811 North 296 341 14,300 1,747 Climbing Washington Center
Fri 05:19:00 PM 39.0320 -77.4001 North  Level Estimated
Fri 05:20:34 PM 39.5167 -77.4672 North 345 397 17,000  Level New York Center
Fri 05:21:33 PM 39.6133 -77.4547 North 352 405 18,300 1,361 Climbing New York Center
Fri 05:22:33 PM 39.7156 -77.4564 359° North 352 405 19,700 1,400 Climbing New York Center
Fri 05:23:33 PM 39.8178 -77.4525 North 352 405 21,100 1,400 Climbing New York Center
Fri 05:24:33 PM 39.9200 -77.4542 359° North 363 418 22,500 1,300 Climbing New York Center
Fri 05:25:33 PM 40.0286 -77.4511 North 373 429 23,700 1,388 Climbing New York Center
Fri 05:26:34 PM 40.1333 -77.4447 North 373 429 25,300 1,600 Climbing New York Center
Fri 05:27:33 PM 40.2372 -77.4467 359° North 373 429 26,900 1,613 Climbing New York Center
Fri 05:28:33 PM 40.3356 -77.4425 North 363 418 28,500 1,600 Climbing New York Center
Fri 05:29:33 PM 40.4336 -77.4411 North 358 412 30,100 1,600 Climbing New York Center
Fri 05:30:33 PM 40.5214 -77.4031 18° North 334 384 31,700 1,450 Climbing New York Center
Fri 05:31:33 PM 40.5986 -77.3258 37° Northeast 324 373 33,000 645 Climbing New York Center
Fri 05:32:34 PM 40.6714 -77.2533 37° Northeast 343 395 33,000  Level New York Center
Fri 05:33:33 PM 40.7575 -77.1656 38° Northeast 371 427 33,000  Level New York Center
Fri 05:34:34 PM 40.8475 -77.0781 36° Northeast 388 447 33,000  Level New York Center
Fri 05:35:34 PM 40.9356 -76.9872 38° Northeast 395 455 33,000  Level New York Center
Fri 05:36:34 PM 41.0258 -76.8964 37° Northeast 395 455 33,000  Level New York Center
Fri 05:37:34 PM 41.1136 -76.8078 37° Northeast 395 455 33,000  Level New York Center
Fri 05:38:34 PM 41.2039 -76.7167 37° Northeast 395 455 33,000  Level New York Center
Fri 05:39:33 PM 41.2958 -76.6253 37° Northeast 400 460 33,000  Level New York Center
Fri 05:40:33 PM 41.3856 -76.5364 37° Northeast 400 460 33,000  Level New York Center
Fri 05:42:32 PM 41.5744 -76.3394 38° Northeast 412 474 33,000  Level Boston Center
Fri 05:43:32 PM 41.6631 -76.2475 38° Northeast 412 474 33,000  Level Boston Center
Fri 05:44:33 PM 41.7539 -76.1528 38° Northeast 412 474 33,000  Level Boston Center
Fri 05:45:33 PM 41.8422 -76.0603 38° Northeast 407 468 33,000  Level Boston Center
Fri 05:46:34 PM 41.9308 -75.9650 39° Northeast 407 468 33,000  Level Boston Center
Fri 05:47:34 PM 42.0214 -75.8694 38° Northeast 407 468 33,000  Level Boston Center
Fri 05:48:31 PM 42.1117 -75.7736 38° Northeast 407 468 33,000  Level Boston Center
Fri 05:49:32 PM 42.2019 -75.6803 37° Northeast 407 468 33,000  Level Boston Center
Fri 05:50:32 PM 42.2922 -75.5839 38° Northeast 412 474 33,000  Level Boston Center
Fri 05:51:33 PM 42.3736 -75.5036 36° Northeast 407 468 33,000  Level Boston Center
Fri 05:52:33 PM 42.4617 -75.4067 39° Northeast 407 468 33,000  Level Boston Center
Fri 05:53:34 PM 42.5519 -75.3067 39° Northeast 407 468 33,000  Level Boston Center
Fri 05:54:32 PM 42.6417 -75.2092 39° Northeast 412 474 33,000  Level Boston Center
Fri 05:55:32 PM 42.7317 -75.1142 38° Northeast 412 474 33,000  Level Boston Center
Fri 05:56:32 PM 42.8236 -75.0133 39° Northeast 412 474 33,000  Level Boston Center
Fri 05:57:33 PM 42.9111 -74.9150 39° Northeast 412 474 33,000  Level Boston Center
Fri 05:58:33 PM 43.0031 -74.8164 38° Northeast 412 474 33,000  Level Boston Center
Fri 05:59:34 PM 43.0947 -74.7147 39° Northeast 412 474 33,000 -706 Level Boston Center
Fri 06:00:32 PM 43.1842 -74.6156 39° Northeast 412 474 31,600 -1,983 Descending Boston Center
Fri 06:01:32 PM 43.2864 -74.5022 39° Northeast 417 480 29,100 -2,300 Descending Boston Center
Fri 06:02:32 PM 43.3819 -74.3969 39° Northeast 427 491 27,000 -2,083 Descending Boston Center
Fri 06:03:33 PM 43.4753 -74.2914 39° Northeast 433 498 24,900 -2,083 Descending Boston Center
Fri 06:04:33 PM 43.5708 -74.1825 40° Northeast 433 498 22,800 -2,083 Descending Boston Center
Fri 06:05:34 PM 43.6639 -74.0847 37° Northeast 426 490 20,700 -2,066 Descending Boston Center
Fri 06:05:34 PM 43.6639 -74.0847 37° Northeast 426 490 20,700 -2,100 Level Boston Center
Fri 06:06:34 PM 43.7489 -73.9833 41° Northeast 413 475 18,600 -2,100 Descending Boston Center
Fri 06:06:34 PM 43.7489 -73.9833 41° Northeast 413 475 18,600 -1,627 Level Boston Center
Fri 06:07:33 PM 43.8292 -73.8933 39° Northeast 393 452 17,000 -1,627 Descending Boston Center
Fri 06:07:33 PM 43.8292 -73.8933 39° Northeast 393 452 17,000 -2,100 Level Boston Center
Fri 06:08:33 PM 43.9075 -73.8003 41° Northeast 374 430 14,900 -2,100 Descending Boston Center
Fri 06:08:33 PM 43.9075 -73.8003 41° Northeast 374 430 14,900 -2,066 Level Boston Center
Fri 06:09:34 PM 43.9833 -73.7211 37° Northeast 349 402 12,800 -2,066 Descending Boston Center
Fri 06:09:34 PM 43.9833 -73.7211 37° Northeast 349 402 12,800 -1,900 Level Boston Center
Fri 06:10:34 PM 44.0531 -73.6417 39° Northeast 329 379 10,900 -1,900 Descending Boston Center
Fri 06:10:34 PM 44.0531 -73.6417 39° Northeast 329 379 10,900 -1,345 Level Boston Center
Fri 06:11:32 PM 44.1142 -73.5708 40° Northeast 307 353 9,600 -1,345 Descending Boston Center
Fri 06:11:32 PM 44.1142 -73.5708 40° Northeast 307 353 9,600 -1,000 Level Boston Center
Fri 06:12:32 PM 44.1667 -73.5081 41° Northeast 269 310 8,600 -1,000 Descending Boston Center
Fri 06:12:32 PM 44.1667 -73.5081 41° Northeast 269 310 8,600 -590 Level Boston Center
Fri 06:13:33 PM 44.2089 -73.4594 40° Northeast 224 258 8,000 -590 Descending Boston Center
Fri 06:13:33 PM 44.2089 -73.4594 40° Northeast 224 258 8,000 -900 Level Boston Center
Fri 06:14:33 PM 44.2467 -73.4139 41° Northeast 189 217 7,100 -900 Descending Boston Center
Fri 06:14:33 PM 44.2467 -73.4139 41° Northeast 189 217 7,100 -1,180 Level Boston Center
Fri 06:15:34 PM 44.2867 -73.3681 39° Northeast 178 205 5,900 -1,180 Descending Boston Center
Fri 06:15:34 PM 44.2867 -73.3681 39° Northeast 178 205 5,900 -1,200 Level Boston Center
Fri 06:16:34 PM 44.3267 -73.3222 39° Northeast 184 212 4,700 -1,200 Descending Boston Center
Fri 06:16:34 PM 44.3267 -73.3222 39° Northeast 184 212 4,700 -1,034 Level Boston Center
Fri 06:17:32 PM 44.3767 -73.3114 North 170 196 3,700 -1,034 Descending Boston Center
Fri 06:17:32 PM 44.3767 -73.3114 North 170 196 3,700 -700 Level Boston Center
Fri 06:18:32 PM 44.4247 -73.3236 350° North 165 190 3,000 -700 Descending Boston Center
Fri 06:18:32 PM 44.4247 -73.3236 350° North 165 190 3,000 -300 Level Boston Center
Fri 06:19:32 PM 44.4706 -73.3069 15° North 171 197 2,700 -300 Descending Boston Center
Fri 06:19:32 PM 44.4706 -73.3069 15° North 171 197 2,700 -393 Level Boston Center
Fri 06:20:33 PM 44.5106 -73.2725 32° Northeast 166 191 2,300 -393 Descending Boston Center
Fri 06:20:33 PM 44.5106 -73.2725 32° Northeast 166 191 2,300 -1,000 Level Boston Center
Fri 06:21:33 PM 44.5150 -73.2203 83° East 139 160 1,300 -1,000 Descending Boston Center
Fri 06:21:33 PM 44.5150 -73.2203 83° East 139 160 1,300 -689 Level Boston Center
Fri 06:22:34 PM 44.4881 -73.1822 135° Southeast 123 142 600 -689 Descending Boston Center
Fri 06:22:34 PM 44.4881 -73.1822 135° Southeast 123 142 600 -316 Level Boston Center
Fri 06:23:31 PM 44.4717 -73.1528 128° Southeast 122 140 300 -316 Descending Boston Center
Fri 06:23:31 PM 44.4717 -73.1528 128° Southeast 122 140 300  Level Boston Center

Login

Don't have an account? Register now (free) for customized features, flight alerts, and more!